Time;durP1;ratioP1;P1;durP2;ratioP2;P2;SDS_P1;SDS_P2;PMS_P1;PMS_P2;Temp;Humidity;BMP_temperature;BMP_pressure;BME280_temperature;BME280_humidity;BME280_pressure;Samples;Min_cycle;Max_cycle;Signal;HPM_P1;HPM_P2
2021/01/17 00:01:30;;;;;;;60.73;31.93;;;0.90;93.10;;;;;;4417010;32;20229;-62
2021/01/17 00:03:56;;;;;;;64.50;34.53;;;0.90;93.10;;;;;;4410387;32;20215;-61
2021/01/17 00:06:22;;;;;;;67.10;34.57;;;0.90;93.10;;;;;;4410918;32;20592;-62
2021/01/17 00:08:51;;;;;;;66.80;34.07;;;0.90;93.20;;;;;;4419682;32;20187;-62
2021/01/17 00:11:17;;;;;;;70.67;34.37;;;0.90;93.20;;;;;;4412714;32;20550;-63
2021/01/17 00:13:44;;;;;;;65.57;34.90;;;0.90;93.20;;;;;;4403827;32;20201;-62
2021/01/17 00:16:11;;;;;;;64.67;33.10;;;0.90;93.20;;;;;;4416719;32;20368;-62
2021/01/17 00:18:37;;;;;;;66.90;33.87;;;0.80;93.20;;;;;;4414189;32;20159;-62
2021/01/17 00:21:04;;;;;;;70.83;36.57;;;0.80;93.30;;;;;;4408498;32;20240;-62
2021/01/17 00:23:30;;;;;;;66.73;34.97;;;0.80;93.30;;;;;;4407998;32;20175;-61
2021/01/17 00:25:57;;;;;;;64.43;33.17;;;0.90;93.40;;;;;;4410208;32;20155;-60
2021/01/17 00:28:24;;;;;;;72.23;34.93;;;0.90;93.30;;;;;;4405318;32;20588;-61
2021/01/17 00:30:50;;;;;;;67.70;35.33;;;0.90;93.40;;;;;;4404059;32;20219;-63
2021/01/17 00:33:16;;;;;;;73.37;37.63;;;0.90;93.40;;;;;;4407637;32;20226;-61
2021/01/17 00:35:43;;;;;;;73.73;36.47;;;0.80;93.60;;;;;;4418415;32;20159;-62
2021/01/17 00:38:09;;;;;;;73.70;35.33;;;0.90;93.60;;;;;;4404326;32;20203;-63
2021/01/17 00:40:35;;;;;;;72.80;36.67;;;0.90;93.50;;;;;;4407711;32;20163;-61
2021/01/17 00:43:03;;;;;;;85.47;38.43;;;0.80;93.50;;;;;;4418373;32;20254;-62
2021/01/17 00:45:29;;;;;;;79.20;36.40;;;0.90;93.60;;;;;;4406373;32;20178;-62
2021/01/17 00:47:58;;;;;;;61.77;34.13;;;0.90;93.90;;;;;;4414818;32;20208;-61
2021/01/17 00:50:25;;;;;;;77.83;37.50;;;0.90;93.70;;;;;;4407968;32;20349;-62
2021/01/17 00:52:53;;;;;;;74.37;37.10;;;0.90;93.80;;;;;;4404092;32;20203;-61
2021/01/17 00:55:22;;;;;;;71.63;36.27;;;0.90;93.80;;;;;;4408784;32;20218;-60
2021/01/17 00:57:48;;;;;;;75.73;36.57;;;0.90;93.80;;;;;;4410515;32;20259;-61
2021/01/17 01:00:21;;;;;;;77.40;37.67;;;0.90;93.80;;;;;;4416636;32;20235;-60
2021/01/17 01:02:47;;;;;;;82.40;38.50;;;0.90;93.80;;;;;;4416828;32;20261;-61
2021/01/17 01:05:14;;;;;;;74.37;35.33;;;0.90;93.80;;;;;;4418522;32;20186;-60
2021/01/17 01:07:42;;;;;;;84.40;40.93;;;0.90;93.80;;;;;;4421676;32;20324;-61
2021/01/17 01:10:10;;;;;;;72.93;36.47;;;0.90;93.90;;;;;;4409917;32;20214;-60
2021/01/17 01:12:36;;;;;;;68.90;34.70;;;0.90;93.90;;;;;;4413070;32;20167;-61
2021/01/17 01:15:03;;;;;;;77.83;38.03;;;0.90;93.90;;;;;;4408317;32;20178;-61
2021/01/17 01:17:31;;;;;;;76.03;37.30;;;0.90;94.00;;;;;;4410055;32;20466;-60
2021/01/17 01:19:59;;;;;;;72.17;35.53;;;0.90;94.10;;;;;;4407087;32;20560;-60
2021/01/17 01:22:25;;;;;;;82.43;38.67;;;0.90;94.00;;;;;;4407102;32;20214;-60
2021/01/17 01:24:55;;;;;;;79.30;38.60;;;0.90;94.10;;;;;;4408357;32;20218;-60
2021/01/17 01:27:21;;;;;;;76.80;36.60;;;0.90;94.20;;;;;;4409511;32;20220;-62
2021/01/17 01:29:47;;;;;;;72.57;38.00;;;0.90;94.20;;;;;;4408014;32;20219;-62
2021/01/17 01:32:14;;;;;;;72.60;36.37;;;0.90;94.20;;;;;;4412948;32;20226;-60
2021/01/17 01:34:41;;;;;;;83.23;38.53;;;0.90;94.30;;;;;;4418483;32;20208;-60
2021/01/17 01:37:07;;;;;;;81.20;38.90;;;0.90;94.30;;;;;;4407393;32;20198;-61
2021/01/17 01:39:38;;;;;;;76.97;36.90;;;0.90;94.30;;;;;;4418965;32;20216;-62
2021/01/17 01:42:05;;;;;;;77.43;37.60;;;1.00;94.30;;;;;;4407346;32;20584;-60
2021/01/17 01:44:32;;;;;;;72.90;36.27;;;0.90;94.30;;;;;;4416492;32;20211;-60
2021/01/17 01:46:58;;;;;;;82.90;36.73;;;0.90;94.30;;;;;;4407442;32;20203;-61
2021/01/17 01:49:26;;;;;;;77.90;37.50;;;1.00;94.30;;;;;;4407220;32;20211;-60
2021/01/17 01:51:55;;;;;;;72.80;35.33;;;0.90;94.30;;;;;;4406720;32;20209;-61
2021/01/17 01:54:22;;;;;;;73.93;35.93;;;0.90;94.40;;;;;;4406734;32;20226;-61
2021/01/17 01:56:52;;;;;;;71.47;36.23;;;0.90;94.40;;;;;;4412568;32;20226;-61
2021/01/17 01:59:20;;;;;;;75.63;36.87;;;0.90;94.50;;;;;;4409271;32;20176;-60
2021/01/17 02:01:48;;;;;;;86.47;37.27;;;0.90;94.50;;;;;;4416000;32;20285;-61
2021/01/17 02:04:14;;;;;;;82.37;36.80;;;0.90;94.60;;;;;;4411740;32;20203;-61
2021/01/17 02:06:58;;;;;;;80.63;36.50;;;0.90;94.50;;;;;;4413853;32;20232;-61
2021/01/17 02:09:29;;;;;;;74.00;36.03;;;0.90;94.60;;;;;;4406888;32;20207;-61
2021/01/17 02:12:27;;;;;;;76.87;36.23;;;0.90;94.60;;;;;;4414523;32;20155;-61
2021/01/17 02:15:01;;;;;;;75.67;36.40;;;1.00;94.60;;;;;;4412263;32;20160;-61
2021/01/17 02:17:29;;;;;;;84.13;39.90;;;0.90;94.60;;;;;;4409626;32;20181;-61
2021/01/17 02:20:10;;;;;;;82.40;37.40;;;0.90;94.60;;;;;;4408806;32;20215;-61
2021/01/17 02:22:43;;;;;;;86.30;39.03;;;0.90;94.70;;;;;;4408767;32;20195;-61
2021/01/17 02:25:14;;;;;;;79.57;37.13;;;0.90;94.70;;;;;;4417989;32;20600;-61
2021/01/17 02:27:42;;;;;;;78.53;36.77;;;0.90;94.80;;;;;;4412394;32;20160;-61
2021/01/17 02:30:11;;;;;;;82.00;37.80;;;0.90;94.70;;;;;;4415143;32;20226;-61
2021/01/17 02:32:45;;;;;;;80.57;37.70;;;1.00;94.80;;;;;;4405796;32;20253;-62
2021/01/17 02:35:13;;;;;;;83.07;37.50;;;0.90;94.70;;;;;;4418345;32;20210;-62
2021/01/17 02:37:48;;;;;;;78.77;36.50;;;0.90;94.80;;;;;;4412165;32;20167;-61
2021/01/17 02:40:37;;;;;;;82.53;37.43;;;1.00;94.80;;;;;;4410987;32;20250;-62
2021/01/17 02:43:06;;;;;;;78.00;38.60;;;0.90;94.70;;;;;;4405389;32;20163;-61
2021/01/17 02:45:34;;;;;;;75.67;37.40;;;1.00;94.80;;;;;;4408424;32;20223;-61
2021/01/17 02:48:01;;;;;;;73.13;36.23;;;1.00;94.90;;;;;;4416650;32;20556;-61
2021/01/17 02:50:32;;;;;;;85.33;37.67;;;1.00;94.80;;;;;;4419919;32;20199;-62
2021/01/17 02:53:04;;;;;;;72.13;36.00;;;1.00;94.80;;;;;;4422167;32;20454;-61
2021/01/17 02:55:35;;;;;;;91.60;38.87;;;0.90;94.80;;;;;;4409937;32;20691;-63
2021/01/17 02:58:04;;;;;;;92.97;38.93;;;0.90;94.90;;;;;;4411828;32;20239;-63
2021/01/17 03:00:35;;;;;;;99.47;42.37;;;1.00;94.90;;;;;;4409390;32;20156;-63
2021/01/17 03:03:04;;;;;;;82.80;38.40;;;0.90;95.00;;;;;;4410271;32;20228;-62
2021/01/17 03:05:31;;;;;;;85.67;38.13;;;1.00;95.10;;;;;;4408333;32;20173;-63
2021/01/17 03:07:58;;;;;;;95.47;40.77;;;0.90;95.10;;;;;;4409091;32;20207;-62
2021/01/17 03:10:25;;;;;;;85.90;37.80;;;0.90;95.10;;;;;;4405581;32;20238;-62
2021/01/17 03:12:53;;;;;;;101.40;41.83;;;1.00;95.10;;;;;;4418873;32;20202;-62
2021/01/17 03:15:21;;;;;;;82.83;38.93;;;0.90;95.10;;;;;;4418799;32;20243;-63
2021/01/17 03:17:47;;;;;;;78.40;36.90;;;0.90;95.10;;;;;;4415639;32;20189;-63
2021/01/17 03:20:14;;;;;;;87.80;37.47;;;0.90;95.10;;;;;;4420217;32;20222;-63
2021/01/17 03:22:42;;;;;;;88.27;40.57;;;0.90;95.40;;;;;;4419368;32;20202;-62
2021/01/17 03:25:09;;;;;;;90.53;39.47;;;0.90;95.20;;;;;;4414834;32;20172;-62
2021/01/17 03:27:38;;;;;;;91.23;39.17;;;0.90;95.20;;;;;;4410371;32;20211;-63
2021/01/17 03:30:07;;;;;;;83.47;37.23;;;1.00;95.20;;;;;;4417033;32;20170;-62
2021/01/17 03:32:33;;;;;;;75.03;36.53;;;1.00;95.20;;;;;;4407164;32;20171;-62
2021/01/17 03:34:59;;;;;;;88.83;38.30;;;1.00;95.20;;;;;;4418591;32;20234;-62
2021/01/17 03:37:29;;;;;;;87.70;39.03;;;1.00;95.20;;;;;;4411709;32;20182;-62
2021/01/17 03:39:55;;;;;;;97.50;40.47;;;1.00;95.20;;;;;;4410462;32;20208;-62
2021/01/17 03:42:23;;;;;;;97.93;39.60;;;1.00;95.20;;;;;;4404502;32;20179;-64
2021/01/17 03:44:49;;;;;;;84.83;35.43;;;1.00;95.20;;;;;;4411502;32;20183;-62
2021/01/17 03:47:16;;;;;;;99.30;42.17;;;1.00;95.20;;;;;;4412342;32;20576;-62
2021/01/17 03:49:42;;;;;;;74.10;35.47;;;1.00;95.30;;;;;;4405856;32;20216;-62
2021/01/17 03:52:09;;;;;;;73.97;35.63;;;1.00;95.20;;;;;;4406358;32;20211;-61
2021/01/17 03:54:35;;;;;;;99.00;39.97;;;1.00;95.20;;;;;;4410037;32;20211;-62
2021/01/17 03:57:01;;;;;;;77.37;37.40;;;1.00;95.20;;;;;;4413206;32;20231;-62
2021/01/17 03:59:28;;;;;;;90.10;37.17;;;1.00;95.20;;;;;;4413005;32;20219;-62
2021/01/17 04:01:54;;;;;;;92.37;37.70;;;1.00;95.20;;;;;;4412931;32;20207;-62
2021/01/17 04:04:21;;;;;;;100.97;40.00;;;1.00;95.30;;;;;;4412871;32;20222;-62
2021/01/17 04:06:47;;;;;;;85.80;36.67;;;1.00;95.30;;;;;;4418203;32;20208;-63
2021/01/17 04:09:15;;;;;;;80.93;37.87;;;1.00;95.30;;;;;;4406273;32;20160;-63
2021/01/17 04:11:41;;;;;;;88.23;37.93;;;1.00;95.30;;;;;;4414611;32;20165;-63
2021/01/17 04:14:07;;;;;;;80.87;36.03;;;1.00;95.20;;;;;;4419270;32;20216;-62
2021/01/17 04:16:34;;;;;;;82.23;36.93;;;1.00;95.50;;;;;;4409399;32;20693;-62
2021/01/17 04:19:00;;;;;;;78.30;35.93;;;1.00;95.30;;;;;;4406206;32;20199;-63
2021/01/17 04:21:29;;;;;;;78.17;35.80;;;1.00;95.30;;;;;;4412200;32;20156;-61
2021/01/17 04:23:55;;;;;;;88.00;37.63;;;1.10;95.30;;;;;;4418987;32;20210;-63
2021/01/17 04:26:23;;;;;;;91.73;38.20;;;1.10;95.20;;;;;;4419431;32;20644;-62
2021/01/17 04:28:50;;;;;;;91.70;38.77;;;1.10;95.20;;;;;;4418722;32;20246;-60
2021/01/17 04:31:16;;;;;;;79.00;36.53;;;1.10;95.20;;;;;;4412475;32;20152;-60
2021/01/17 04:33:42;;;;;;;80.80;36.73;;;1.10;95.20;;;;;;4406727;32;20278;-61
2021/01/17 04:36:09;;;;;;;80.70;36.90;;;1.00;95.20;;;;;;4404312;32;20223;-61
2021/01/17 04:38:36;;;;;;;98.23;38.37;;;1.10;95.30;;;;;;4417008;32;20535;-61
2021/01/17 04:41:04;;;;;;;76.13;34.43;;;1.10;95.20;;;;;;4418586;32;20264;-60
2021/01/17 04:43:31;;;;;;;76.03;34.80;;;1.10;95.20;;;;;;4417685;32;20181;-61
2021/01/17 04:46:01;;;;;;;77.30;35.27;;;1.10;95.20;;;;;;4412818;32;20168;-61
2021/01/17 04:48:30;;;;;;;90.73;37.27;;;1.10;95.20;;;;;;4404824;32;20254;-62
2021/01/17 04:51:01;;;;;;;101.67;40.57;;;1.20;95.20;;;;;;4396558;32;20629;-62
2021/01/17 04:53:29;;;;;;;84.00;36.67;;;1.10;95.10;;;;;;4415820;32;20208;-61
2021/01/17 04:56:11;;;;;;;83.37;38.27;;;1.10;95.20;;;;;;4418935;32;20159;-61
2021/01/17 04:58:44;;;;;;;88.33;37.50;;;1.20;95.20;;;;;;4406073;32;20197;-61
2021/01/17 05:01:22;;;;;;;96.57;40.60;;;1.10;95.20;;;;;;4406571;32;20655;-60
2021/01/17 05:04:13;;;;;;;83.67;37.07;;;1.10;95.20;;;;;;4416400;32;20156;-61
2021/01/17 05:06:40;;;;;;;94.23;38.43;;;1.10;95.20;;;;;;4410007;32;20226;-62
2021/01/17 05:09:06;;;;;;;88.33;36.97;;;1.10;95.20;;;;;;4411906;32;20305;-61
2021/01/17 05:11:36;;;;;;;84.03;37.10;;;1.10;95.20;;;;;;4408559;32;20193;-61
2021/01/17 05:14:13;;;;;;;79.30;34.67;;;1.20;95.20;;;;;;4408824;32;20211;-62
2021/01/17 05:16:42;;;;;;;79.30;35.10;;;1.20;95.10;;;;;;4413163;32;20160;-62
2021/01/17 05:19:13;;;;;;;86.33;36.97;;;1.10;95.10;;;;;;4406000;32;20227;-62
2021/01/17 05:21:46;;;;;;;91.50;36.50;;;1.20;95.10;;;;;;4410634;32;20210;-61
2021/01/17 05:24:13;;;;;;;85.47;36.47;;;1.20;95.10;;;;;;4413096;32;20217;-61
2021/01/17 05:26:42;;;;;;;81.83;35.50;;;1.30;95.10;;;;;;4411120;32;20148;-64
2021/01/17 05:29:09;;;;;;;79.67;36.80;;;1.30;95.00;;;;;;4405387;32;20174;-62
2021/01/17 05:31:35;;;;;;;76.93;35.97;;;1.20;95.10;;;;;;4415126;32;20156;-61
2021/01/17 05:34:02;;;;;;;92.73;37.93;;;1.20;95.10;;;;;;4404813;32;20215;-63
2021/01/17 05:36:29;;;;;;;90.03;36.87;;;1.30;95.10;;;;;;4407107;32;20221;-61
2021/01/17 05:39:04;;;;;;;80.40;35.80;;;1.30;95.10;;;;;;4404068;32;20537;-62
2021/01/17 05:41:30;;;;;;;93.00;36.57;;;1.30;95.10;;;;;;4405759;32;20181;-62
2021/01/17 05:43:57;;;;;;;82.20;35.47;;;1.30;95.00;;;;;;4406455;32;20156;-62
2021/01/17 05:46:24;;;;;;;98.70;39.80;;;1.30;95.00;;;;;;4416104;32;20518;-61
2021/01/17 05:49:08;;;;;;;79.40;34.83;;;1.30;95.00;;;;;;4415374;32;20182;-61
2021/01/17 05:51:36;;;;;;;97.80;36.80;;;1.30;95.00;;;;;;4417849;32;20181;-61
2021/01/17 05:54:07;;;;;;;82.70;35.00;;;1.30;95.00;;;;;;4421080;32;20186;-61
2021/01/17 05:56:36;;;;;;;88.40;36.17;;;1.30;95.00;;;;;;4415209;32;20163;-63
2021/01/17 05:59:05;;;;;;;94.40;37.90;;;1.40;95.10;;;;;;4406449;32;20222;-62
2021/01/17 06:01:34;;;;;;;80.50;35.67;;;1.40;95.00;;;;;;4412177;32;20198;-64
2021/01/17 06:04:09;;;;;;;83.77;36.67;;;1.40;95.00;;;;;;4411626;32;20223;-61
2021/01/17 06:06:36;;;;;;;81.00;37.03;;;1.40;95.30;;;;;;4413589;32;20174;-61
2021/01/17 06:09:05;;;;;;;88.17;37.23;;;1.40;95.00;;;;;;4419635;32;20155;-65
2021/01/17 06:11:32;;;;;;;89.07;37.43;;;1.40;95.00;;;;;;4409302;32;20214;-61
2021/01/17 06:13:59;;;;;;;98.03;37.67;;;1.50;95.00;;;;;;4412126;32;20584;-61
2021/01/17 06:16:32;;;;;;;88.53;38.27;;;1.40;95.00;;;;;;4411211;32;20202;-60
2021/01/17 06:18:59;;;;;;;86.87;37.40;;;1.40;94.90;;;;;;4413877;32;20155;-63
2021/01/17 06:21:27;;;;;;;90.10;37.43;;;1.50;95.00;;;;;;4420177;32;20219;-63
2021/01/17 06:23:58;;;;;;;82.17;35.00;;;1.40;94.90;;;;;;4406563;32;20215;-61
2021/01/17 06:26:29;;;;;;;87.23;36.93;;;1.40;94.90;;;;;;4418757;32;20239;-62
2021/01/17 06:28:56;;;;;;;109.83;42.03;;;1.50;95.00;;;;;;4419891;32;20215;-61
2021/01/17 06:31:27;;;;;;;109.43;42.23;;;1.50;95.00;;;;;;4408049;32;20244;-63
2021/01/17 06:34:06;;;;;;;96.27;39.27;;;1.50;95.00;;;;;;4415569;32;20379;-61
2021/01/17 06:36:34;;;;;;;95.90;38.03;;;1.50;95.00;;;;;;4420758;32;20155;-60
2021/01/17 06:39:04;;;;;;;88.23;36.43;;;1.50;95.00;;;;;;4410181;32;20156;-63
2021/01/17 06:41:38;;;;;;;84.03;35.17;;;1.50;95.00;;;;;;4408429;32;20174;-64
2021/01/17 06:44:10;;;;;;;95.60;37.97;;;1.50;94.90;;;;;;4410276;32;20214;-63
2021/01/17 06:46:41;;;;;;;86.23;36.10;;;1.50;94.90;;;;;;4406803;32;20179;-62
2021/01/17 06:49:20;;;;;;;82.13;33.93;;;1.60;94.90;;;;;;4411844;32;20159;-61
2021/01/17 06:51:47;;;;;;;78.53;34.70;;;1.60;94.90;;;;;;4416792;32;20167;-62
2021/01/17 06:54:17;;;;;;;83.73;35.50;;;1.60;94.80;;;;;;4409122;32;20194;-61
2021/01/17 06:56:45;;;;;;;86.57;36.00;;;1.60;94.80;;;;;;4413700;32;20179;-62
2021/01/17 06:59:12;;;;;;;87.87;36.37;;;1.60;94.80;;;;;;4413416;32;20213;-62
2021/01/17 07:01:43;;;;;;;90.03;36.73;;;1.60;94.80;;;;;;4408087;32;20216;-62
2021/01/17 07:04:39;;;;;;;79.53;35.37;;;1.60;94.70;;;;;;4406508;32;20341;-60
2021/01/17 07:07:34;;;;;;;87.37;37.03;;;1.70;94.70;;;;;;4407686;32;20194;-61
2021/01/17 07:10:04;;;;;;;83.90;35.27;;;1.70;94.70;;;;;;4409731;32;20227;-62
2021/01/17 07:12:40;;;;;;;82.60;34.90;;;1.60;94.70;;;;;;4413010;32;20501;-62
2021/01/17 07:15:08;;;;;;;80.73;34.57;;;1.70;94.70;;;;;;4411405;32;20271;-61
2021/01/17 07:17:36;;;;;;;69.47;33.30;;;1.70;94.70;;;;;;4414173;32;20269;-64
2021/01/17 07:20:06;;;;;;;84.77;35.47;;;1.70;94.70;;;;;;4410003;32;20203;-61
2021/01/17 07:22:33;;;;;;;85.80;36.10;;;1.70;94.70;;;;;;4411557;32;20212;-63
2021/01/17 07:25:01;;;;;;;77.10;32.57;;;1.70;94.60;;;;;;4412797;32;20207;-63
2021/01/17 07:27:52;;;;;;;78.57;34.67;;;1.70;94.60;;;;;;4405658;32;20231;-62
2021/01/17 07:30:20;;;;;;;85.73;33.90;;;1.80;94.60;;;;;;4405079;32;20167;-62
2021/01/17 07:32:54;;;;;;;76.93;32.73;;;1.80;94.60;;;;;;4411106;32;20242;-61
2021/01/17 07:35:27;;;;;;;72.20;32.03;;;1.70;94.50;;;;;;4404836;32;20168;-62
2021/01/17 07:37:55;;;;;;;69.73;32.50;;;1.70;94.50;;;;;;4412914;32;20256;-60
2021/01/17 07:43:08;;;;;;;64.60;31.47;;;1.80;94.50;;;;;;4403818;32;20572;-61
2021/01/17 07:45:38;;;;;;;68.83;31.70;;;1.80;94.50;;;;;;4409895;32;20260;-63
2021/01/17 07:48:09;;;;;;;71.00;30.83;;;1.80;94.50;;;;;;4409195;32;20198;-61
2021/01/17 07:50:39;;;;;;;63.03;30.27;;;1.80;94.50;;;;;;4408426;32;20163;-64
2021/01/17 07:53:09;;;;;;;66.53;31.23;;;1.80;94.50;;;;;;4410762;32;20534;-62
2021/01/17 07:55:36;;;;;;;84.47;32.47;;;1.80;94.40;;;;;;4412447;32;20174;-61
2021/01/17 07:58:04;;;;;;;67.47;29.73;;;1.80;94.40;;;;;;4411115;32;20239;-62
2021/01/17 08:00:30;;;;;;;71.07;32.60;;;1.80;94.40;;;;;;4408477;32;20646;-61
2021/01/17 08:02:57;;;;;;;73.63;33.47;;;1.80;94.40;;;;;;4410805;32;20224;-63
2021/01/17 08:05:49;;;;;;;74.50;33.63;;;1.90;94.40;;;;;;4406307;32;20148;-63
2021/01/17 08:08:47;;;;;;;70.87;32.50;;;1.90;94.40;;;;;;4412065;32;20173;-63
2021/01/17 08:11:42;;;;;;;68.10;30.60;;;1.90;94.40;;;;;;4413317;32;20595;-63
2021/01/17 08:14:22;;;;;;;61.47;29.03;;;1.90;94.30;;;;;;4409863;32;20151;-62
2021/01/17 08:17:06;;;;;;;65.90;31.93;;;2.00;94.40;;;;;;4414276;32;20234;-62
2021/01/17 08:19:44;;;;;;;61.87;29.13;;;2.00;94.40;;;;;;4412037;32;20207;-64
2021/01/17 08:22:44;;;;;;;76.60;32.23;;;2.00;94.40;;;;;;4409442;32;20524;-62
2021/01/17 08:25:31;;;;;;;66.60;31.20;;;2.10;94.50;;;;;;4411477;32;20182;-61
2021/01/17 08:27:57;;;;;;;57.73;28.03;;;2.10;94.50;;;;;;4411843;32;20210;-62
2021/01/17 08:30:24;;;;;;;64.07;29.63;;;2.20;94.50;;;;;;4411630;32;20202;-64
2021/01/17 08:32:53;;;;;;;60.67;28.83;;;2.20;94.50;;;;;;4407242;32;20206;-63
2021/01/17 08:35:33;;;;;;;63.87;30.17;;;2.20;94.50;;;;;;4406044;32;20218;-63
2021/01/17 08:38:22;;;;;;;66.43;29.90;;;2.30;94.60;;;;;;4408698;32;20206;-62
2021/01/17 08:40:50;;;;;;;62.03;29.40;;;2.30;94.50;;;;;;4406049;32;20290;-62
2021/01/17 08:43:18;;;;;;;50.73;26.30;;;2.30;94.50;;;;;;4409052;32;20267;-63
2021/01/17 08:45:46;;;;;;;55.20;27.47;;;2.30;94.50;;;;;;4412211;32;20215;-62
2021/01/17 08:48:27;;;;;;;55.13;25.70;;;2.30;94.80;;;;;;4410918;32;20214;-60
2021/01/17 08:50:54;;;;;;;53.90;27.37;;;2.30;94.40;;;;;;4406698;32;20208;-61
2021/01/17 08:53:30;;;;;;;61.87;29.07;;;2.30;94.30;;;;;;4406435;32;20172;-63
2021/01/17 08:56:19;;;;;;;59.47;28.53;;;2.30;94.40;;;;;;4410456;32;20203;-61
2021/01/17 08:58:50;;;;;;;56.00;25.37;;;2.30;94.40;;;;;;4409406;32;20151;-63
2021/01/17 09:01:17;;;;;;;56.77;27.50;;;2.30;94.40;;;;;;4408492;32;20218;-62
2021/01/17 09:04:05;;;;;;;57.00;27.17;;;2.30;94.40;;;;;;4410018;32;20162;-63
2021/01/17 09:06:34;;;;;;;57.67;27.40;;;2.30;94.40;;;;;;4410742;32;20645;-62
2021/01/17 09:09:08;;;;;;;57.33;28.17;;;2.30;94.50;;;;;;4406846;32;20155;-63
2021/01/17 09:11:38;;;;;;;56.03;28.83;;;2.40;94.70;;;;;;4410452;32;20197;-63
2021/01/17 09:14:13;;;;;;;57.87;27.10;;;2.40;94.60;;;;;;4406553;32;20633;-64
2021/01/17 09:16:44;;;;;;;55.67;28.03;;;2.40;94.30;;;;;;4410241;32;20249;-64
2021/01/17 09:19:10;;;;;;;60.00;29.57;;;2.40;94.50;;;;;;4413010;32;20202;-62
2021/01/17 09:21:38;;;;;;;50.90;26.67;;;2.50;94.60;;;;;;4414273;32;20294;-62
2021/01/17 09:24:11;;;;;;;48.20;25.17;;;2.50;94.50;;;;;;4410709;32;20179;-64
2021/01/17 09:26:40;;;;;;;51.97;26.10;;;2.60;94.50;;;;;;4413016;32;20296;-63
2021/01/17 09:29:06;;;;;;;52.73;26.57;;;2.60;94.40;;;;;;4412282;32;20232;-63
2021/01/17 09:31:35;;;;;;;57.43;28.07;;;2.60;94.30;;;;;;4411852;32;20258;-64
2021/01/17 09:34:01;;;;;;;52.43;24.40;;;2.50;94.10;;;;;;4413762;32;20164;-63
2021/01/17 09:36:27;;;;;;;60.00;27.30;;;2.50;94.10;;;;;;4407576;32;20171;-63
2021/01/17 09:38:54;;;;;;;53.93;27.07;;;2.50;94.10;;;;;;4420762;32;20172;-62
2021/01/17 09:41:26;;;;;;;53.40;26.10;;;2.40;94.30;;;;;;4422302;32;20178;-61
2021/01/17 09:43:53;;;;;;;58.97;29.03;;;2.50;94.50;;;;;;4408488;32;20194;-62
2021/01/17 09:46:24;;;;;;;57.13;29.07;;;2.50;94.70;;;;;;4414911;32;20623;-64
2021/01/17 09:49:00;;;;;;;60.43;28.60;;;2.70;94.70;;;;;;4417205;32;20178;-63
2021/01/17 09:51:28;;;;;;;61.07;28.70;;;2.70;94.40;;;;;;4407866;32;20151;-61
2021/01/17 09:54:00;;;;;;;62.27;28.77;;;2.80;94.60;;;;;;4408829;32;20205;-61
2021/01/17 09:56:45;;;;;;;63.20;29.40;;;2.90;94.60;;;;;;4408868;32;20160;-63
2021/01/17 09:59:38;;;;;;;61.33;27.10;;;3.10;94.70;;;;;;4409422;32;20208;-63
2021/01/17 10:05:14;;;;;;;42.33;19.77;;;3.50;94.60;;;;;;4265992;33;20179;-63
2021/01/17 10:07:40;;;;;;;43.30;17.73;;;3.60;94.60;;;;;;4260876;33;20171;-62
2021/01/17 10:10:53;;;;;;;;;;;;;;;;;;;;;
2021/01/17 10:13:30;;;;;;;43.83;15.03;;;3.80;94.50;;;;;;4257512;33;20592;-63
2021/01/17 10:16:00;;;;;;;45.80;13.70;;;3.90;94.60;;;;;;4260813;33;20659;-62
2021/01/17 10:18:26;;;;;;;53.33;11.60;;;4.00;95.10;;;;;;4256609;33;20218;-63
2021/01/17 10:21:01;;;;;;;46.10;11.50;;;4.40;95.50;;;;;;4265600;33;20225;-63
2021/01/17 10:23:33;;;;;;;32.33;10.40;;;4.50;95.20;;;;;;4258137;33;20191;-62
2021/01/17 10:26:07;;;;;;;31.50;9.97;;;4.60;94.80;;;;;;4263126;33;20162;-63
2021/01/17 10:28:35;;;;;;;32.40;9.67;;;4.60;94.90;;;;;;4260983;33;20164;-64
2021/01/17 10:31:03;;;;;;;38.93;9.93;;;4.60;95.00;;;;;;4254980;33;20182;-63
2021/01/17 10:33:30;;;;;;;29.47;10.13;;;4.50;95.10;;;;;;4266968;33;20191;-63
2021/01/17 10:35:57;;;;;;;33.13;9.50;;;4.80;95.70;;;;;;4282975;33;20185;-63
2021/01/17 10:38:23;;;;;;;39.23;9.03;;;5.30;96.30;;;;;;4308945;33;20236;-64
2021/01/17 10:40:52;;;;;;;31.83;9.43;;;5.60;95.20;;;;;;4338785;33;20999;-62
2021/01/17 10:43:29;;;;;;;41.57;10.43;;;5.60;94.10;;;;;;4383575;32;20300;-64
2021/01/17 10:46:09;;;;;;;31.97;8.70;;;5.60;93.80;;;;;;4377850;32;20314;-64
2021/01/17 10:48:44;;;;;;;26.20;7.93;;;5.40;93.70;;;;;;4378257;32;20152;-62
2021/01/17 10:51:17;;;;;;;29.57;6.90;;;5.40;94.00;;;;;;4408144;32;20210;-64
2021/01/17 10:53:48;;;;;;;24.10;5.53;;;5.50;94.20;;;;;;4406236;32;20213;-64
2021/01/17 10:56:17;;;;;;;29.10;6.50;;;5.40;94.10;;;;;;4405882;32;20155;-63
2021/01/17 10:58:45;;;;;;;24.27;6.77;;;5.40;94.20;;;;;;4407144;32;20154;-64
2021/01/17 11:01:12;;;;;;;24.47;6.77;;;5.40;94.40;;;;;;4410137;32;20236;-65
2021/01/17 11:03:40;;;;;;;28.87;6.87;;;5.40;94.40;;;;;;4409508;32;20221;-63
2021/01/17 11:06:11;;;;;;;34.20;8.13;;;5.40;94.20;;;;;;4408369;32;20179;-63
2021/01/17 11:08:48;;;;;;;29.30;7.97;;;5.30;94.20;;;;;;4407518;32;20495;-65
2021/01/17 11:11:15;;;;;;;35.07;7.73;;;5.30;94.40;;;;;;4413194;32;20147;-64
2021/01/17 11:13:43;;;;;;;36.43;7.20;;;5.30;94.50;;;;;;4408046;32;20382;-64
2021/01/17 11:16:10;;;;;;;31.70;9.13;;;5.30;94.50;;;;;;4417336;32;20256;-64
2021/01/17 11:18:37;;;;;;;35.60;8.00;;;5.50;95.30;;;;;;4406523;32;20193;-63
2021/01/17 11:21:05;;;;;;;27.80;7.57;;;5.70;95.20;;;;;;4402426;32;20152;-63
2021/01/17 11:23:32;;;;;;;29.23;7.67;;;5.90;94.60;;;;;;4405590;32;20273;-63
2021/01/17 11:26:04;;;;;;;40.73;8.97;;;6.10;94.20;;;;;;4406389;32;20152;-64
2021/01/17 11:28:31;;;;;;;27.23;6.87;;;6.30;94.20;;;;;;4408356;32;20218;-63
2021/01/17 11:31:11;;;;;;;34.70;7.23;;;6.50;93.90;;;;;;4412086;32;20223;-63
2021/01/17 11:33:38;;;;;;;37.43;7.60;;;6.70;93.10;;;;;;4405048;32;20647;-62
2021/01/17 11:36:05;;;;;;;24.07;6.53;;;6.60;92.80;;;;;;4410407;32;20152;-65
2021/01/17 11:38:46;;;;;;;32.30;7.47;;;6.60;92.60;;;;;;4413303;32;20185;-63
2021/01/17 11:41:13;;;;;;;23.73;6.30;;;6.40;92.60;;;;;;4419117;32;20293;-63
2021/01/17 11:43:40;;;;;;;41.20;7.40;;;6.20;92.80;;;;;;4412284;32;20261;-63
2021/01/17 11:46:07;;;;;;;27.93;7.10;;;6.10;93.30;;;;;;4420842;32;20160;-63
2021/01/17 11:48:35;;;;;;;28.93;7.37;;;6.00;93.50;;;;;;4412939;32;20316;-63
2021/01/17 11:51:03;;;;;;;31.23;7.63;;;5.90;93.80;;;;;;4421627;32;20159;-64
2021/01/17 11:53:30;;;;;;;31.27;7.30;;;5.80;93.90;;;;;;4419181;32;20163;-64
2021/01/17 11:55:57;;;;;;;26.13;6.30;;;5.80;94.10;;;;;;4413012;32;20223;-62
2021/01/17 11:58:25;;;;;;;31.23;7.57;;;5.70;94.10;;;;;;4409221;32;20581;-63
2021/01/17 12:00:54;;;;;;;22.03;6.70;;;5.70;94.60;;;;;;4406687;32;20205;-63
2021/01/17 12:03:28;;;;;;;26.13;6.57;;;5.70;94.30;;;;;;4413047;32;20163;-65
2021/01/17 12:06:17;;;;;;;25.53;6.53;;;5.70;94.50;;;;;;4404505;32;20207;-64
2021/01/17 12:09:00;;;;;;;31.73;6.63;;;5.80;94.90;;;;;;4408566;32;20228;-64
2021/01/17 12:11:35;;;;;;;19.27;5.63;;;6.00;94.70;;;;;;4414818;32;20160;-64
2021/01/17 12:14:03;;;;;;;23.03;5.50;;;6.20;94.00;;;;;;4246687;32;5363803;-65
2021/01/17 12:16:34;;;;;;;25.10;5.03;;;6.50;94.00;;;;;;4420733;32;20151;-64
2021/01/17 12:19:01;;;;;;;24.50;6.23;;;6.90;93.20;;;;;;4412190;32;20590;-64
2021/01/17 12:21:30;;;;;;;25.43;5.30;;;7.20;92.00;;;;;;4420885;32;20151;-66
2021/01/17 12:23:57;;;;;;;29.10;5.93;;;7.20;91.50;;;;;;4412893;32;20171;-65
2021/01/17 12:26:24;;;;;;;26.50;5.37;;;7.20;91.70;;;;;;4409701;32;20160;-64
2021/01/17 12:28:50;;;;;;;25.10;5.10;;;7.30;91.90;;;;;;4415478;32;20241;-65
2021/01/17 12:31:17;;;;;;;28.23;5.73;;;7.50;91.60;;;;;;4409580;32;20223;-64
2021/01/17 12:33:44;;;;;;;21.90;5.03;;;7.60;91.00;;;;;;4406847;32;20219;-65
2021/01/17 12:36:13;;;;;;;22.37;5.30;;;7.60;90.90;;;;;;4404577;32;20571;-64
2021/01/17 12:38:40;;;;;;;29.03;5.03;;;7.70;90.60;;;;;;4409065;32;20271;-65
2021/01/17 12:41:11;;;;;;;20.53;4.90;;;7.50;90.50;;;;;;4412425;32;20190;-64
2021/01/17 12:43:41;;;;;;;26.47;5.33;;;7.60;90.80;;;;;;4406233;32;20502;-65
2021/01/17 12:46:08;;;;;;;25.97;4.43;;;7.70;90.50;;;;;;4404115;32;20219;-65
2021/01/17 12:48:35;;;;;;;29.30;5.27;;;7.60;89.20;;;;;;4405046;32;20218;-65
2021/01/17 12:51:02;;;;;;;31.77;5.77;;;7.20;90.10;;;;;;4407717;32;20215;-64
2021/01/17 12:53:29;;;;;;;21.80;4.80;;;7.00;90.90;;;;;;4402908;32;20179;-64
2021/01/17 12:55:59;;;;;;;26.73;5.73;;;6.80;91.40;;;;;;4407088;32;20178;-64
2021/01/17 12:58:25;;;;;;;22.97;4.93;;;6.60;92.00;;;;;;4407276;32;20211;-64
2021/01/17 13:00:52;;;;;;;18.13;4.63;;;6.60;91.80;;;;;;4416445;32;20215;-64
2021/01/17 13:03:19;;;;;;;30.37;4.43;;;6.60;91.90;;;;;;4413039;32;20207;-63